sensor_id;sensor_type;location;lat;lon;timestamp;pressure;altitude;pressure_sealevel;temperature;humidity
64687;BME280;51113;53.646;-113.674;2023-06-10T00:00:21;93546.53;;;28.83;27.06
64687;BME280;51113;53.646;-113.674;2023-06-10T00:02:51;93555.31;;;28.87;27.73
64687;BME280;51113;53.646;-113.674;2023-06-10T00:05:19;93555.25;;;28.73;27.33
64687;BME280;51113;53.646;-113.674;2023-06-10T00:07:49;93552.59;;;28.80;27.17
64687;BME280;51113;53.646;-113.674;2023-06-10T00:10:18;93557.56;;;28.75;27.80
64687;BME280;51113;53.646;-113.674;2023-06-10T00:12:47;93556.41;;;28.79;27.44
64687;BME280;51113;53.646;-113.674;2023-06-10T00:15:16;93556.41;;;28.72;27.80
64687;BME280;51113;53.646;-113.674;2023-06-10T00:17:45;93546.50;;;28.80;27.59
64687;BME280;51113;53.646;-113.674;2023-06-10T00:20:14;93551.81;;;28.69;27.59
64687;BME280;51113;53.646;-113.674;2023-06-10T00:22:42;93551.03;;;28.69;27.94
64687;BME280;51113;53.646;-113.674;2023-06-10T00:25:13;93551.38;;;28.60;27.77
64687;BME280;51113;53.646;-113.674;2023-06-10T00:27:42;93541.06;;;28.55;28.03
64687;BME280;51113;53.646;-113.674;2023-06-10T00:30:11;93547.94;;;28.59;28.26
64687;BME280;51113;53.646;-113.674;2023-06-10T00:32:40;93541.41;;;28.50;28.28
64687;BME280;51113;53.646;-113.674;2023-06-10T00:35:09;93541.81;;;28.55;28.86
64687;BME280;51113;53.646;-113.674;2023-06-10T00:37:38;93537.97;;;28.49;27.88
64687;BME280;51113;53.646;-113.674;2023-06-10T00:40:07;93538.69;;;28.39;28.31
64687;BME280;51113;53.646;-113.674;2023-06-10T00:42:39;93537.19;;;28.45;28.41
64687;BME280;51113;53.646;-113.674;2023-06-10T00:45:08;93538.66;;;28.28;28.02
64687;BME280;51113;53.646;-113.674;2023-06-10T00:47:37;93543.22;;;28.28;28.15
64687;BME280;51113;53.646;-113.674;2023-06-10T00:50:07;93534.75;;;28.15;28.19
64687;BME280;51113;53.646;-113.674;2023-06-10T00:52:35;93532.44;;;28.10;28.34
64687;BME280;51113;53.646;-113.674;2023-06-10T00:55:05;93533.97;;;28.15;28.74
64687;BME280;51113;53.646;-113.674;2023-06-10T00:57:36;93534.00;;;28.18;28.73
64687;BME280;51113;53.646;-113.674;2023-06-10T01:00:07;93531.69;;;28.13;28.91
64687;BME280;51113;53.646;-113.674;2023-06-10T01:02:37;93536.28;;;28.16;28.80
64687;BME280;51113;53.646;-113.674;2023-06-10T01:05:06;93533.31;;;28.28;29.31
64687;BME280;51113;53.646;-113.674;2023-06-10T01:07:43;93534.84;;;28.29;28.73
64687;BME280;51113;53.646;-113.674;2023-06-10T01:10:39;93529.88;;;28.32;28.83
64687;BME280;51113;53.646;-113.674;2023-06-10T01:13:13;93536.47;;;28.52;29.17
64687;BME280;51113;53.646;-113.674;2023-06-10T01:15:43;93531.06;;;28.38;29.21
64687;BME280;51113;53.646;-113.674;2023-06-10T01:18:12;93536.38;;;28.34;29.41
64687;BME280;51113;53.646;-113.674;2023-06-10T01:20:43;93533.38;;;28.43;29.55
64687;BME280;51113;53.646;-113.674;2023-06-10T01:23:17;93532.84;;;28.16;29.02
64687;BME280;51113;53.646;-113.674;2023-06-10T01:25:53;93540.75;;;27.98;29.60
64687;BME280;51113;53.646;-113.674;2023-06-10T01:28:40;93538.03;;;27.91;30.21
64687;BME280;51113;53.646;-113.674;2023-06-10T01:31:29;93537.69;;;27.96;30.21
64687;BME280;51113;53.646;-113.674;2023-06-10T01:34:05;93550.13;;;27.74;30.48
64687;BME280;51113;53.646;-113.674;2023-06-10T01:36:38;93542.78;;;27.60;30.14
64687;BME280;51113;53.646;-113.674;2023-06-10T01:39:08;93535.03;;;27.48;30.38
64687;BME280;51113;53.646;-113.674;2023-06-10T01:41:40;93541.91;;;27.49;30.82
64687;BME280;51113;53.646;-113.674;2023-06-10T01:44:09;93537.25;;;27.39;31.07
64687;BME280;51113;53.646;-113.674;2023-06-10T01:46:38;93542.44;;;27.21;30.90
64687;BME280;51113;53.646;-113.674;2023-06-10T01:49:07;93540.09;;;27.16;30.48
64687;BME280;51113;53.646;-113.674;2023-06-10T01:51:35;93535.38;;;26.99;30.85
64687;BME280;51113;53.646;-113.674;2023-06-10T01:54:04;93545.97;;;26.95;31.07
64687;BME280;51113;53.646;-113.674;2023-06-10T01:56:33;93535.19;;;26.85;32.08
64687;BME280;51113;53.646;-113.674;2023-06-10T01:59:02;93530.47;;;26.71;32.53
64687;BME280;51113;53.646;-113.674;2023-06-10T02:01:31;93539.59;;;26.70;32.01
64687;BME280;51113;53.646;-113.674;2023-06-10T02:04:00;93530.31;;;26.57;32.61
64687;BME280;51113;53.646;-113.674;2023-06-10T02:06:29;93526.44;;;26.51;32.65
64687;BME280;51113;53.646;-113.674;2023-06-10T02:08:58;93529.44;;;26.46;32.21
64687;BME280;51113;53.646;-113.674;2023-06-10T02:11:26;93527.13;;;26.44;32.48
64687;BME280;51113;53.646;-113.674;2023-06-10T02:13:55;93542.91;;;26.30;33.16
64687;BME280;51113;53.646;-113.674;2023-06-10T02:16:23;93536.31;;;26.20;33.44
64687;BME280;51113;53.646;-113.674;2023-06-10T02:18:52;93543.88;;;26.15;33.36
64687;BME280;51113;53.646;-113.674;2023-06-10T02:21:21;93538.84;;;26.10;33.37
64687;BME280;51113;53.646;-113.674;2023-06-10T02:23:50;93537.13;;;25.94;34.17
64687;BME280;51113;53.646;-113.674;2023-06-10T02:26:18;93551.31;;;26.02;33.62
64687;BME280;51113;53.646;-113.674;2023-06-10T02:28:48;93547.25;;;25.85;34.28
64687;BME280;51113;53.646;-113.674;2023-06-10T02:31:17;93549.16;;;25.85;34.56
64687;BME280;51113;53.646;-113.674;2023-06-10T02:33:46;93546.75;;;25.76;34.44
64687;BME280;51113;53.646;-113.674;2023-06-10T02:36:15;93544.56;;;25.82;34.12
64687;BME280;51113;53.646;-113.674;2023-06-10T02:38:43;93534.09;;;25.69;34.53
64687;BME280;51113;53.646;-113.674;2023-06-10T02:41:12;93545.97;;;25.75;34.20
64687;BME280;51113;53.646;-113.674;2023-06-10T02:43:41;93546.91;;;25.64;34.49
64687;BME280;51113;53.646;-113.674;2023-06-10T02:46:09;93548.28;;;25.54;34.74
64687;BME280;51113;53.646;-113.674;2023-06-10T02:48:45;93541.78;;;25.52;35.14
64687;BME280;51113;53.646;-113.674;2023-06-10T02:51:13;93544.69;;;25.43;35.28
64687;BME280;51113;53.646;-113.674;2023-06-10T02:53:42;93544.69;;;25.43;35.04
64687;BME280;51113;53.646;-113.674;2023-06-10T02:56:10;93539.69;;;25.38;34.82
64687;BME280;51113;53.646;-113.674;2023-06-10T02:58:40;93547.19;;;25.32;35.03
64687;BME280;51113;53.646;-113.674;2023-06-10T03:01:10;93548.13;;;25.21;35.57
64687;BME280;51113;53.646;-113.674;2023-06-10T03:03:38;93536.19;;;25.11;35.50
64687;BME280;51113;53.646;-113.674;2023-06-10T03:06:10;93546.53;;;25.16;35.51
64687;BME280;51113;53.646;-113.674;2023-06-10T03:08:39;93562.84;;;25.15;35.99
64687;BME280;51113;53.646;-113.674;2023-06-10T03:11:08;93550.56;;;25.06;35.53
64687;BME280;51113;53.646;-113.674;2023-06-10T03:13:41;93544.00;;;25.00;35.59
64687;BME280;51113;53.646;-113.674;2023-06-10T03:16:10;93546.59;;;24.97;35.76
64687;BME280;51113;53.646;-113.674;2023-06-10T03:18:40;93551.81;;;24.93;35.79
64687;BME280;51113;53.646;-113.674;2023-06-10T03:21:09;93551.31;;;24.88;36.00
64687;BME280;51113;53.646;-113.674;2023-06-10T03:23:37;93556.16;;;24.82;36.25
64687;BME280;51113;53.646;-113.674;2023-06-10T03:26:06;93554.91;;;24.76;36.01
64687;BME280;51113;53.646;-113.674;2023-06-10T03:28:36;93556.31;;;24.70;36.08
64687;BME280;51113;53.646;-113.674;2023-06-10T03:31:04;93561.50;;;24.63;36.31
64687;BME280;51113;53.646;-113.674;2023-06-10T03:33:33;93556.88;;;24.60;36.61
64687;BME280;51113;53.646;-113.674;2023-06-10T03:36:04;93555.00;;;24.60;36.26
64687;BME280;51113;53.646;-113.674;2023-06-10T03:38:33;93560.66;;;24.59;36.19
64687;BME280;51113;53.646;-113.674;2023-06-10T03:41:02;93571.00;;;24.44;36.68
64687;BME280;51113;53.646;-113.674;2023-06-10T03:43:30;93556.59;;;24.45;36.49
64687;BME280;51113;53.646;-113.674;2023-06-10T03:45:59;93569.88;;;24.45;36.08
64687;BME280;51113;53.646;-113.674;2023-06-10T03:48:28;93560.31;;;24.41;36.00
64687;BME280;51113;53.646;-113.674;2023-06-10T03:50:59;93564.69;;;24.33;36.15
64687;BME280;51113;53.646;-113.674;2023-06-10T03:53:27;93555.19;;;24.32;36.06
64687;BME280;51113;53.646;-113.674;2023-06-10T03:55:56;93560.25;;;24.22;36.28
64687;BME280;51113;53.646;-113.674;2023-06-10T03:58:26;93559.63;;;24.09;36.64
64687;BME280;51113;53.646;-113.674;2023-06-10T04:00:54;93560.31;;;24.06;36.26
64687;BME280;51113;53.646;-113.674;2023-06-10T04:03:23;93556.03;;;24.01;36.20
64687;BME280;51113;53.646;-113.674;2023-06-10T04:05:52;93554.66;;;24.07;35.83
64687;BME280;51113;53.646;-113.674;2023-06-10T04:08:20;93564.06;;;24.05;35.59
64687;BME280;51113;53.646;-113.674;2023-06-10T04:10:50;93558.63;;;23.98;35.88
64687;BME280;51113;53.646;-113.674;2023-06-10T04:13:19;93569.06;;;23.91;35.98
64687;BME280;51113;53.646;-113.674;2023-06-10T04:15:48;93561.72;;;23.84;35.80
64687;BME280;51113;53.646;-113.674;2023-06-10T04:18:16;93570.81;;;23.83;35.62
64687;BME280;51113;53.646;-113.674;2023-06-10T04:20:45;93560.38;;;23.74;35.78
64687;BME280;51113;53.646;-113.674;2023-06-10T04:23:14;93562.59;;;23.72;35.60
64687;BME280;51113;53.646;-113.674;2023-06-10T04:25:43;93561.91;;;23.75;35.54
64687;BME280;51113;53.646;-113.674;2023-06-10T04:28:11;93565.19;;;23.69;35.73
64687;BME280;51113;53.646;-113.674;2023-06-10T04:30:40;93560.06;;;23.60;35.90
64687;BME280;51113;53.646;-113.674;2023-06-10T04:33:09;93564.94;;;23.58;35.57
64687;BME280;51113;53.646;-113.674;2023-06-10T04:35:38;93562.28;;;23.58;35.71
64687;BME280;51113;53.646;-113.674;2023-06-10T04:38:07;93563.63;;;23.52;35.80
64687;BME280;51113;53.646;-113.674;2023-06-10T04:40:35;93570.47;;;23.53;35.61
64687;BME280;51113;53.646;-113.674;2023-06-10T04:43:04;93572.69;;;23.35;36.35
64687;BME280;51113;53.646;-113.674;2023-06-10T04:45:33;93572.00;;;23.38;35.75
64687;BME280;51113;53.646;-113.674;2023-06-10T04:48:01;93571.84;;;23.31;36.02
64687;BME280;51113;53.646;-113.674;2023-06-10T04:50:31;93567.97;;;23.29;35.91
64687;BME280;51113;53.646;-113.674;2023-06-10T04:53:01;93568.56;;;23.22;35.83
64687;BME280;51113;53.646;-113.674;2023-06-10T04:55:29;93573.44;;;23.20;35.98
64687;BME280;51113;53.646;-113.674;2023-06-10T04:57:58;93564.91;;;23.11;35.69
64687;BME280;51113;53.646;-113.674;2023-06-10T05:00:27;93567.88;;;23.09;35.78
64687;BME280;51113;53.646;-113.674;2023-06-10T05:02:56;93567.47;;;23.07;35.84
64687;BME280;51113;53.646;-113.674;2023-06-10T05:05:25;93562.50;;;23.06;35.97
64687;BME280;51113;53.646;-113.674;2023-06-10T05:07:54;93568.38;;;22.99;35.75
64687;BME280;51113;53.646;-113.674;2023-06-10T05:10:22;93552.25;;;23.04;35.52
64687;BME280;51113;53.646;-113.674;2023-06-10T05:12:51;93561.53;;;22.98;35.55
64687;BME280;51113;53.646;-113.674;2023-06-10T05:15:19;93560.44;;;22.99;35.47
64687;BME280;51113;53.646;-113.674;2023-06-10T05:17:48;93553.69;;;23.02;35.09
64687;BME280;51113;53.646;-113.674;2023-06-10T05:20:17;93561.13;;;22.96;35.31
64687;BME280;51113;53.646;-113.674;2023-06-10T05:22:46;93558.72;;;22.91;35.64
64687;BME280;51113;53.646;-113.674;2023-06-10T05:25:15;93564.16;;;22.82;35.73
64687;BME280;51113;53.646;-113.674;2023-06-10T05:27:43;93558.09;;;22.82;35.23
64687;BME280;51113;53.646;-113.674;2023-06-10T05:30:12;93562.50;;;22.78;35.36
64687;BME280;51113;53.646;-113.674;2023-06-10T05:32:40;93560.59;;;22.63;36.09
64687;BME280;51113;53.646;-113.674;2023-06-10T05:35:09;93556.63;;;22.56;35.69
64687;BME280;51113;53.646;-113.674;2023-06-10T05:37:38;93552.88;;;22.58;35.55
64687;BME280;51113;53.646;-113.674;2023-06-10T05:40:07;93558.84;;;22.54;35.29
64687;BME280;51113;53.646;-113.674;2023-06-10T05:42:36;93556.34;;;22.46;35.32
64687;BME280;51113;53.646;-113.674;2023-06-10T05:45:06;93554.56;;;22.50;35.33
64687;BME280;51113;53.646;-113.674;2023-06-10T05:47:35;93556.44;;;22.49;34.99
64687;BME280;51113;53.646;-113.674;2023-06-10T05:50:05;93556.94;;;22.39;35.21
64687;BME280;51113;53.646;-113.674;2023-06-10T05:52:37;93556.63;;;22.29;35.73
64687;BME280;51113;53.646;-113.674;2023-06-10T05:55:08;93558.38;;;22.37;35.14
64687;BME280;51113;53.646;-113.674;2023-06-10T05:57:38;93555.19;;;22.31;35.52
64687;BME280;51113;53.646;-113.674;2023-06-10T06:00:07;93561.25;;;22.32;35.08
64687;BME280;51113;53.646;-113.674;2023-06-10T06:02:36;93554.22;;;22.23;35.23
64687;BME280;51113;53.646;-113.674;2023-06-10T06:05:05;93549.25;;;22.22;35.33
64687;BME280;51113;53.646;-113.674;2023-06-10T06:07:35;93544.09;;;22.13;35.53
64687;BME280;51113;53.646;-113.674;2023-06-10T06:10:04;93546.97;;;22.08;35.52
64687;BME280;51113;53.646;-113.674;2023-06-10T06:12:33;93546.06;;;22.16;34.95
64687;BME280;51113;53.646;-113.674;2023-06-10T06:15:01;93545.22;;;22.00;35.27
64687;BME280;51113;53.646;-113.674;2023-06-10T06:17:30;93559.44;;;21.96;35.46
64687;BME280;51113;53.646;-113.674;2023-06-10T06:19:59;93559.22;;;21.88;35.70
64687;BME280;51113;53.646;-113.674;2023-06-10T06:22:28;93554.25;;;21.87;35.57
64687;BME280;51113;53.646;-113.674;2023-06-10T06:24:56;93553.72;;;21.81;35.62
64687;BME280;51113;53.646;-113.674;2023-06-10T06:27:25;93555.06;;;21.75;35.79
64687;BME280;51113;53.646;-113.674;2023-06-10T06:29:54;93557.69;;;21.75;35.87
64687;BME280;51113;53.646;-113.674;2023-06-10T06:32:24;93555.81;;;21.76;35.65
64687;BME280;51113;53.646;-113.674;2023-06-10T06:34:55;93559.69;;;21.66;36.07
64687;BME280;51113;53.646;-113.674;2023-06-10T06:37:24;93563.44;;;21.53;36.44
64687;BME280;51113;53.646;-113.674;2023-06-10T06:39:54;93555.38;;;21.62;36.10
64687;BME280;51113;53.646;-113.674;2023-06-10T06:42:22;93561.13;;;21.51;36.67
64687;BME280;51113;53.646;-113.674;2023-06-10T06:44:51;93556.38;;;21.45;36.78
64687;BME280;51113;53.646;-113.674;2023-06-10T06:47:20;93561.44;;;21.38;36.86
64687;BME280;51113;53.646;-113.674;2023-06-10T06:49:49;93558.69;;;21.46;36.64
64687;BME280;51113;53.646;-113.674;2023-06-10T06:52:18;93569.91;;;21.31;36.95
64687;BME280;51113;53.646;-113.674;2023-06-10T06:54:47;93563.44;;;21.41;36.47
64687;BME280;51113;53.646;-113.674;2023-06-10T06:57:15;93551.97;;;21.37;36.54
64687;BME280;51113;53.646;-113.674;2023-06-10T06:59:44;93561.34;;;21.34;36.57
64687;BME280;51113;53.646;-113.674;2023-06-10T07:02:13;93561.75;;;21.24;37.17
64687;BME280;51113;53.646;-113.674;2023-06-10T07:04:42;93554.47;;;21.21;37.14
64687;BME280;51113;53.646;-113.674;2023-06-10T07:07:11;93560.72;;;21.16;36.97
64687;BME280;51113;53.646;-113.674;2023-06-10T07:09:40;93563.91;;;21.10;37.51
64687;BME280;51113;53.646;-113.674;2023-06-10T07:12:09;93562.69;;;21.07;37.51
64687;BME280;51113;53.646;-113.674;2023-06-10T07:14:38;93557.63;;;21.02;37.55
64687;BME280;51113;53.646;-113.674;2023-06-10T07:17:06;93558.28;;;20.99;37.39
64687;BME280;51113;53.646;-113.674;2023-06-10T07:19:35;93567.31;;;20.98;37.24
64687;BME280;51113;53.646;-113.674;2023-06-10T07:22:04;93562.00;;;20.86;38.26
64687;BME280;51113;53.646;-113.674;2023-06-10T07:24:33;93566.50;;;20.85;37.94
64687;BME280;51113;53.646;-113.674;2023-06-10T07:27:02;93567.03;;;20.79;38.33
64687;BME280;51113;53.646;-113.674;2023-06-10T07:29:31;93573.41;;;20.78;38.03
64687;BME280;51113;53.646;-113.674;2023-06-10T07:31:59;93566.78;;;20.72;38.42
64687;BME280;51113;53.646;-113.674;2023-06-10T07:34:28;93570.53;;;20.71;38.47
64687;BME280;51113;53.646;-113.674;2023-06-10T07:36:57;93567.31;;;20.65;38.80
64687;BME280;51113;53.646;-113.674;2023-06-10T07:39:25;93560.06;;;20.62;38.55
64687;BME280;51113;53.646;-113.674;2023-06-10T07:41:54;93566.56;;;20.64;38.55
64687;BME280;51113;53.646;-113.674;2023-06-10T07:44:25;93561.09;;;20.49;39.20
64687;BME280;51113;53.646;-113.674;2023-06-10T07:46:53;93560.13;;;20.53;38.98
64687;BME280;51113;53.646;-113.674;2023-06-10T07:49:23;93556.28;;;20.51;39.07
64687;BME280;51113;53.646;-113.674;2023-06-10T07:51:54;93555.25;;;20.43;39.40
64687;BME280;51113;53.646;-113.674;2023-06-10T07:54:23;93568.50;;;20.35;39.70
64687;BME280;51113;53.646;-113.674;2023-06-10T07:56:55;93563.97;;;20.35;40.11
64687;BME280;51113;53.646;-113.674;2023-06-10T07:59:24;93569.59;;;20.33;39.69
64687;BME280;51113;53.646;-113.674;2023-06-10T08:01:54;93562.31;;;20.30;40.06
64687;BME280;51113;53.646;-113.674;2023-06-10T08:04:23;93558.19;;;20.21;40.01
64687;BME280;51113;53.646;-113.674;2023-06-10T08:06:52;93564.56;;;20.20;39.76
64687;BME280;51113;53.646;-113.674;2023-06-10T08:09:21;93569.72;;;20.16;40.06
64687;BME280;51113;53.646;-113.674;2023-06-10T08:11:51;93569.31;;;20.06;40.95
64687;BME280;51113;53.646;-113.674;2023-06-10T08:14:20;93570.28;;;20.01;40.86
64687;BME280;51113;53.646;-113.674;2023-06-10T08:16:48;93567.06;;;19.95;40.78
64687;BME280;51113;53.646;-113.674;2023-06-10T08:19:17;93569.38;;;19.97;40.96
64687;BME280;51113;53.646;-113.674;2023-06-10T08:21:45;93550.22;;;19.88;41.03
64687;BME280;51113;53.646;-113.674;2023-06-10T08:24:14;93545.63;;;19.76;41.52
64687;BME280;51113;53.646;-113.674;2023-06-10T08:26:46;93562.72;;;19.70;41.70
64687;BME280;51113;53.646;-113.674;2023-06-10T08:29:14;93561.69;;;19.62;42.17
64687;BME280;51113;53.646;-113.674;2023-06-10T08:31:43;93559.56;;;19.56;42.38
64687;BME280;51113;53.646;-113.674;2023-06-10T08:34:12;93545.63;;;19.47;42.78
64687;BME280;51113;53.646;-113.674;2023-06-10T08:36:40;93550.28;;;19.41;42.53
64687;BME280;51113;53.646;-113.674;2023-06-10T08:39:09;93549.25;;;19.33;42.64
64687;BME280;51113;53.646;-113.674;2023-06-10T08:41:43;93545.38;;;19.31;42.99
64687;BME280;51113;53.646;-113.674;2023-06-10T08:44:19;93541.25;;;19.21;43.40
64687;BME280;51113;53.646;-113.674;2023-06-10T08:46:51;93541.28;;;19.13;43.75
64687;BME280;51113;53.646;-113.674;2023-06-10T08:49:23;93548.72;;;19.11;43.76
64687;BME280;51113;53.646;-113.674;2023-06-10T08:51:58;93538.22;;;19.02;43.96
64687;BME280;51113;53.646;-113.674;2023-06-10T08:54:34;93546.59;;;18.95;44.37
64687;BME280;51113;53.646;-113.674;2023-06-10T08:57:06;93549.13;;;18.83;44.76
64687;BME280;51113;53.646;-113.674;2023-06-10T08:59:36;93549.59;;;18.77;44.85
64687;BME280;51113;53.646;-113.674;2023-06-10T09:02:07;93545.09;;;18.86;44.61
64687;BME280;51113;53.646;-113.674;2023-06-10T09:04:37;93552.84;;;18.82;44.60
64687;BME280;51113;53.646;-113.674;2023-06-10T09:07:06;93553.31;;;18.76;45.14
64687;BME280;51113;53.646;-113.674;2023-06-10T09:09:35;93548.22;;;18.70;45.14
64687;BME280;51113;53.646;-113.674;2023-06-10T09:12:04;93554.56;;;18.69;45.17
64687;BME280;51113;53.646;-113.674;2023-06-10T09:14:34;93550.56;;;18.63;45.52
64687;BME280;51113;53.646;-113.674;2023-06-10T09:17:04;93551.63;;;18.54;45.77
64687;BME280;51113;53.646;-113.674;2023-06-10T09:19:33;93553.63;;;18.57;45.50
64687;BME280;51113;53.646;-113.674;2023-06-10T09:22:04;93555.34;;;18.53;45.74
64687;BME280;51113;53.646;-113.674;2023-06-10T09:24:33;93555.03;;;18.54;45.63
64687;BME280;51113;53.646;-113.674;2023-06-10T09:27:08;93552.56;;;18.49;45.82
64687;BME280;51113;53.646;-113.674;2023-06-10T09:29:54;93558.13;;;18.39;46.29
64687;BME280;51113;53.646;-113.674;2023-06-10T09:32:23;93562.47;;;18.35;46.52
64687;BME280;51113;53.646;-113.674;2023-06-10T09:34:52;93556.91;;;18.36;46.19
64687;BME280;51113;53.646;-113.674;2023-06-10T09:37:25;93557.84;;;18.32;46.59
64687;BME280;51113;53.646;-113.674;2023-06-10T09:40:05;93560.63;;;18.27;46.56
64687;BME280;51113;53.646;-113.674;2023-06-10T09:42:37;93560.16;;;18.25;46.68
64687;BME280;51113;53.646;-113.674;2023-06-10T09:45:07;93551.03;;;18.22;46.65
64687;BME280;51113;53.646;-113.674;2023-06-10T09:47:35;93557.06;;;18.23;46.59
64687;BME280;51113;53.646;-113.674;2023-06-10T09:50:04;93556.91;;;18.19;46.83
64687;BME280;51113;53.646;-113.674;2023-06-10T09:52:37;93547.63;;;18.04;46.98
64687;BME280;51113;53.646;-113.674;2023-06-10T09:55:08;93553.19;;;18.12;47.01
64687;BME280;51113;53.646;-113.674;2023-06-10T09:57:38;93558.47;;;18.12;46.97
64687;BME280;51113;53.646;-113.674;2023-06-10T10:00:10;93547.63;;;18.04;47.04
64687;BME280;51113;53.646;-113.674;2023-06-10T10:02:51;93552.09;;;17.95;47.44
64687;BME280;51113;53.646;-113.674;2023-06-10T10:05:21;93554.25;;;17.85;48.00
64687;BME280;51113;53.646;-113.674;2023-06-10T10:07:51;93553.03;;;17.82;48.02
64687;BME280;51113;53.646;-113.674;2023-06-10T10:10:21;93547.00;;;17.82;48.03
64687;BME280;51113;53.646;-113.674;2023-06-10T10:12:56;93553.63;;;17.79;47.93
64687;BME280;51113;53.646;-113.674;2023-06-10T10:15:29;93556.56;;;17.69;48.38
64687;BME280;51113;53.646;-113.674;2023-06-10T10:20:34;93543.88;;;17.71;48.23
64687;BME280;51113;53.646;-113.674;2023-06-10T10:23:04;93546.81;;;17.69;48.09
64687;BME280;51113;53.646;-113.674;2023-06-10T10:25:40;93543.53;;;17.64;48.19
64687;BME280;51113;53.646;-113.674;2023-06-10T10:28:10;93543.38;;;17.60;48.62
64687;BME280;51113;53.646;-113.674;2023-06-10T10:30:47;93541.34;;;17.57;48.64
64687;BME280;51113;53.646;-113.674;2023-06-10T10:33:20;93540.72;;;17.52;48.64
64687;BME280;51113;53.646;-113.674;2023-06-10T10:35:53;93544.41;;;17.42;49.10
64687;BME280;51113;53.646;-113.674;2023-06-10T10:38:22;93548.88;;;17.41;48.93
64687;BME280;51113;53.646;-113.674;2023-06-10T10:40:51;93552.13;;;17.38;49.14
64687;BME280;51113;53.646;-113.674;2023-06-10T10:43:20;93543.91;;;17.31;49.37
64687;BME280;51113;53.646;-113.674;2023-06-10T10:46:12;93539.75;;;17.30;49.25
64687;BME280;51113;53.646;-113.674;2023-06-10T10:48:42;93539.13;;;17.25;49.46
64687;BME280;51113;53.646;-113.674;2023-06-10T10:51:11;93536.31;;;17.21;49.46
64687;BME280;51113;53.646;-113.674;2023-06-10T10:53:40;93540.50;;;17.22;49.53
64687;BME280;51113;53.646;-113.674;2023-06-10T10:56:14;93538.94;;;17.21;49.83
64687;BME280;51113;53.646;-113.674;2023-06-10T10:58:42;93545.09;;;17.17;49.65
64687;BME280;51113;53.646;-113.674;2023-06-10T11:01:40;93542.47;;;17.17;49.94
64687;BME280;51113;53.646;-113.674;2023-06-10T11:04:10;93540.47;;;17.14;49.76
64687;BME280;51113;53.646;-113.674;2023-06-10T11:06:38;93541.97;;;17.06;50.32
64687;BME280;51113;53.646;-113.674;2023-06-10T11:09:29;93542.59;;;17.03;50.27
64687;BME280;51113;53.646;-113.674;2023-06-10T11:11:58;93546.13;;;16.98;50.23
64687;BME280;51113;53.646;-113.674;2023-06-10T11:14:30;93545.34;;;16.98;50.54
64687;BME280;51113;53.646;-113.674;2023-06-10T11:17:01;93551.19;;;16.95;50.67
64687;BME280;51113;53.646;-113.674;2023-06-10T11:19:36;93541.16;;;16.97;50.05
64687;BME280;51113;53.646;-113.674;2023-06-10T11:22:07;93545.47;;;16.93;50.61
64687;BME280;51113;53.646;-113.674;2023-06-10T11:24:38;93536.97;;;16.87;50.93
64687;BME280;51113;53.646;-113.674;2023-06-10T11:27:20;93545.13;;;16.86;50.71
64687;BME280;51113;53.646;-113.674;2023-06-10T11:30:17;93537.56;;;16.84;50.79
64687;BME280;51113;53.646;-113.674;2023-06-10T11:32:50;93540.31;;;16.79;51.11
64687;BME280;51113;53.646;-113.674;2023-06-10T11:35:27;93549.69;;;16.71;51.48
64687;BME280;51113;53.646;-113.674;2023-06-10T11:37:55;93548.47;;;16.77;51.26
64687;BME280;51113;53.646;-113.674;2023-06-10T11:40:24;93546.47;;;16.74;51.24
64687;BME280;51113;53.646;-113.674;2023-06-10T11:42:55;93540.91;;;16.76;51.27
64687;BME280;51113;53.646;-113.674;2023-06-10T11:45:24;93547.22;;;16.75;51.51
64687;BME280;51113;53.646;-113.674;2023-06-10T11:47:57;93548.94;;;16.79;51.40
64687;BME280;51113;53.646;-113.674;2023-06-10T11:50:29;93550.63;;;16.75;51.59
64687;BME280;51113;53.646;-113.674;2023-06-10T11:52:58;93549.44;;;16.82;51.49
64687;BME280;51113;53.646;-113.674;2023-06-10T11:55:47;93538.34;;;16.85;51.44
64687;BME280;51113;53.646;-113.674;2023-06-10T11:58:18;93542.50;;;16.86;51.58
64687;BME280;51113;53.646;-113.674;2023-06-10T12:00:48;93546.81;;;16.82;51.79
64687;BME280;51113;53.646;-113.674;2023-06-10T12:03:17;93533.56;;;16.87;51.35
64687;BME280;51113;53.646;-113.674;2023-06-10T12:05:56;93540.34;;;16.88;51.25
64687;BME280;51113;53.646;-113.674;2023-06-10T12:08:26;93546.69;;;16.87;51.88
64687;BME280;51113;53.646;-113.674;2023-06-10T12:10:56;93549.00;;;16.88;51.42
64687;BME280;51113;53.646;-113.674;2023-06-10T12:13:28;93541.59;;;16.90;51.79
64687;BME280;51113;53.646;-113.674;2023-06-10T12:16:07;93540.22;;;16.93;51.58
64687;BME280;51113;53.646;-113.674;2023-06-10T12:18:36;93542.84;;;16.93;51.61
64687;BME280;51113;53.646;-113.674;2023-06-10T12:21:19;93544.41;;;16.94;51.57
64687;BME280;51113;53.646;-113.674;2023-06-10T12:26:43;93543.78;;;16.97;51.58
64687;BME280;51113;53.646;-113.674;2023-06-10T12:29:19;93541.94;;;16.97;51.77
64687;BME280;51113;53.646;-113.674;2023-06-10T12:32:01;93542.25;;;16.96;51.63
64687;BME280;51113;53.646;-113.674;2023-06-10T12:34:37;93543.00;;;16.96;51.64
64687;BME280;51113;53.646;-113.674;2023-06-10T12:37:11;93545.34;;;16.98;51.74
64687;BME280;51113;53.646;-113.674;2023-06-10T12:39:51;93546.53;;;16.92;51.93
64687;BME280;51113;53.646;-113.674;2023-06-10T12:42:25;93549.00;;;16.88;52.28
64687;BME280;51113;53.646;-113.674;2023-06-10T12:44:54;93555.03;;;16.89;52.32
64687;BME280;51113;53.646;-113.674;2023-06-10T12:47:32;93551.44;;;16.85;52.39
64687;BME280;51113;53.646;-113.674;2023-06-10T12:50:03;93557.78;;;16.84;52.25
64687;BME280;51113;53.646;-113.674;2023-06-10T12:52:32;93561.81;;;16.90;52.34